Time;durP1;ratioP1;P1;durP2;ratioP2;P2;SDS_P1;SDS_P2;PMS_P1;PMS_P2;Temp;Humidity;BMP_temperature;BMP_pressure;BME280_temperature;BME280_humidity;BME280_pressure;Samples;Min_cycle;Max_cycle;Signal;HPM_P1;HPM_P2
2022/08/02 00:01:42;;;;;;;0.68;0.68;;;17.30;99.90;17.40;100793.00;;;;4997834;28;84040;-62
2022/08/02 00:04:09;;;;;;;1.23;0.75;;;17.30;99.90;17.40;100788.00;;;;4997800;28;82800;-62
2022/08/02 00:06:35;;;;;;;1.05;0.68;;;17.20;99.90;17.30;100797.00;;;;4995694;28;82508;-62
2022/08/02 00:09:02;;;;;;;0.68;0.52;;;17.20;99.90;17.30;100794.00;;;;4998779;27;81988;-62
2022/08/02 00:11:28;;;;;;;1.30;0.55;;;17.20;99.90;17.30;100789.00;;;;4997058;28;101758;-62
2022/08/02 00:13:54;;;;;;;0.80;0.80;;;17.20;99.90;17.20;100785.00;;;;4996492;28;111831;-62
2022/08/02 00:16:19;;;;;;;0.50;0.50;;;17.10;99.90;17.20;100783.00;;;;4998208;27;105976;-64
2022/08/02 00:18:45;;;;;;;1.27;0.60;;;17.10;99.90;17.20;100789.00;;;;4999970;28;109288;-63
2022/08/02 00:21:12;;;;;;;1.08;0.75;;;17.10;99.90;17.10;100787.00;;;;5000023;27;112463;-64
2022/08/02 00:23:38;;;;;;;0.85;0.50;;;17.00;99.90;17.10;100780.00;;;;5000760;27;89439;-64
2022/08/02 00:26:03;;;;;;;0.70;0.70;;;17.00;99.90;17.00;100779.00;;;;4999719;28;110102;-64
2022/08/02 00:28:29;;;;;;;0.57;0.57;;;16.90;99.90;17.00;100785.00;;;;4999730;28;106149;-64
2022/08/02 00:30:57;;;;;;;1.10;0.68;;;16.90;99.90;17.00;100782.00;;;;5000842;28;84005;-62
2022/08/02 00:33:23;;;;;;;1.10;0.80;;;16.80;99.90;16.90;100780.00;;;;5000729;28;83845;-64
2022/08/02 00:35:49;;;;;;;0.50;0.50;;;16.80;99.90;16.80;100779.00;;;;5000296;28;82350;-64
2022/08/02 00:38:14;;;;;;;0.95;0.50;;;16.70;99.90;16.80;100778.00;;;;5009890;27;108183;-64
2022/08/02 00:40:47;;;;;;;0.82;0.70;;;16.70;99.90;16.80;100769.00;;;;5019530;27;84511;-64
2022/08/02 00:43:12;;;;;;;1.10;0.82;;;16.70;99.90;16.70;100772.00;;;;5001188;28;84780;-64
2022/08/02 00:45:39;;;;;;;0.63;0.55;;;16.60;99.90;16.70;100780.00;;;;4999739;28;110574;-64
2022/08/02 00:48:07;;;;;;;0.88;0.82;;;16.60;99.90;16.60;100778.00;;;;5001023;28;82608;-64
2022/08/02 00:50:36;;;;;;;0.85;0.65;;;16.50;99.90;16.60;100779.00;;;;4999879;28;105576;-64
2022/08/02 00:53:03;;;;;;;0.70;0.70;;;16.50;99.90;16.60;100781.00;;;;4999079;28;83001;-64
2022/08/02 00:55:29;;;;;;;1.65;0.82;;;16.50;99.90;16.50;100779.00;;;;5000158;28;93838;-64
2022/08/02 00:57:55;;;;;;;1.38;0.85;;;16.40;99.90;16.50;100780.00;;;;4999883;28;102720;-64
2022/08/02 01:00:21;;;;;;;1.00;0.68;;;16.40;99.90;16.60;100787.00;;;;5000159;27;83845;-64
2022/08/02 01:02:47;;;;;;;0.73;0.68;;;16.40;99.90;16.60;100785.00;;;;4999587;28;113391;-64
2022/08/02 01:05:13;;;;;;;0.75;0.60;;;16.40;99.90;16.60;100789.00;;;;4999928;28;98107;-64
2022/08/02 01:07:39;;;;;;;1.02;0.50;;;16.50;99.90;16.60;100787.00;;;;5000803;28;87928;-64
2022/08/02 01:10:06;;;;;;;1.00;0.88;;;16.50;99.90;16.60;100793.00;;;;4999559;28;111402;-64
2022/08/02 01:12:31;;;;;;;1.08;0.73;;;16.50;99.90;16.60;100786.00;;;;4999831;28;99135;-64
2022/08/02 01:15:07;;;;;;;1.27;0.70;;;16.50;99.90;16.50;100783.00;;;;5000632;28;82754;-63
2022/08/02 01:18:02;;;;;;;0.40;0.40;;;16.40;99.90;16.40;100779.00;;;;5014870;27;82659;-64
2022/08/02 01:21:02;;;;;;;0.80;0.77;;;16.40;99.90;16.40;100785.00;;;;5000317;28;83941;-61
2022/08/02 01:23:51;;;;;;;1.10;0.55;;;16.30;99.90;16.30;100786.00;;;;5000843;27;82825;-62
2022/08/02 01:26:37;;;;;;;0.47;0.47;;;16.30;99.90;16.30;100784.00;;;;5015055;27;82492;-63
2022/08/02 01:29:16;;;;;;;0.80;0.75;;;16.20;99.90;16.30;100783.00;;;;5015061;27;82600;-62
2022/08/02 01:31:49;;;;;;;0.77;0.65;;;16.20;99.90;16.20;100780.00;;;;4999232;28;84908;-63
2022/08/02 01:34:35;;;;;;;1.60;1.10;;;16.10;99.90;16.10;100778.00;;;;4999724;28;85003;-62
2022/08/02 01:37:13;;;;;;;1.95;0.93;;;16.10;99.90;16.10;100770.00;;;;4999145;28;101889;-62
2022/08/02 01:39:41;;;;;;;0.70;0.45;;;16.10;99.90;16.10;100779.00;;;;4999095;28;93614;-62
2022/08/02 01:42:08;;;;;;;0.70;0.70;;;16.00;99.90;16.10;100788.00;;;;5010319;27;103694;-62
2022/08/02 01:44:37;;;;;;;0.60;0.60;;;16.00;99.90;16.10;100783.00;;;;5018608;27;113272;-63
2022/08/02 01:47:08;;;;;;;0.68;0.68;;;16.00;99.90;16.10;100792.00;;;;5018031;27;83145;-63
2022/08/02 01:49:36;;;;;;;0.90;0.82;;;16.00;99.90;16.10;100792.00;;;;5019759;27;82090;-63
2022/08/02 01:52:22;;;;;;;1.52;0.85;;;16.00;99.90;16.10;100783.00;;;;5018989;27;99763;-63
2022/08/02 01:55:04;;;;;;;1.10;0.68;;;16.00;99.90;16.10;100796.00;;;;5018455;27;82871;-63
2022/08/02 01:57:36;;;;;;;0.60;0.60;;;16.00;99.90;16.10;100788.00;;;;5016216;27;91606;-63
2022/08/02 02:00:06;;;;;;;1.15;0.90;;;16.00;99.90;16.10;100792.00;;;;5017382;27;95174;-63
2022/08/02 02:02:35;;;;;;;1.02;0.93;;;16.00;99.90;16.20;100802.00;;;;5019296;27;82604;-63
2022/08/02 02:05:02;;;;;;;0.85;0.77;;;16.10;99.90;16.20;100797.00;;;;5019702;27;82895;-63
2022/08/02 02:07:31;;;;;;;1.05;1.05;;;16.10;99.90;16.30;100799.00;;;;5019182;27;82458;-62
2022/08/02 02:09:58;;;;;;;0.93;0.73;;;16.10;99.90;16.40;100801.00;;;;5016649;27;99894;-62
2022/08/02 02:12:26;;;;;;;1.00;0.80;;;16.20;99.90;16.50;100797.00;;;;5016793;27;112334;-62
2022/08/02 02:14:53;;;;;;;0.82;0.80;;;16.40;99.90;16.50;100800.00;;;;5020271;27;83625;-63
2022/08/02 02:17:23;;;;;;;2.10;0.90;;;16.40;99.90;16.60;100793.00;;;;5019194;27;82691;-64
2022/08/02 02:19:51;;;;;;;1.17;1.05;;;16.50;99.90;16.70;100795.00;;;;5019606;27;82742;-62
2022/08/02 02:22:16;;;;;;;1.00;0.90;;;16.50;99.90;16.70;100804.00;;;;5016813;27;83871;-63
2022/08/02 02:24:42;;;;;;;0.88;0.85;;;16.60;99.90;16.80;100801.00;;;;5018371;27;112925;-63
2022/08/02 02:27:11;;;;;;;1.00;0.90;;;16.60;99.90;16.80;100803.00;;;;5018359;27;110918;-63
2022/08/02 02:29:43;;;;;;;1.33;1.15;;;16.60;99.90;16.80;100798.00;;;;5016335;27;99774;-63
2022/08/02 02:32:09;;;;;;;1.00;0.93;;;16.70;99.90;16.80;100797.00;;;;5004184;27;82919;-63
2022/08/02 02:34:40;;;;;;;0.75;0.60;;;16.70;99.90;16.80;100800.00;;;;4997923;28;111209;-63
2022/08/02 02:37:17;;;;;;;1.30;1.20;;;16.70;99.90;16.80;100802.00;;;;4997122;27;82812;-64
2022/08/02 02:39:44;;;;;;;0.95;0.80;;;16.70;99.90;16.90;100804.00;;;;5017013;27;82039;-64
2022/08/02 02:42:15;;;;;;;2.65;1.02;;;16.80;99.90;16.80;100791.00;;;;5005335;27;82663;-61
2022/08/02 02:44:44;;;;;;;3.33;1.75;;;16.70;99.90;16.80;100790.00;;;;5013351;27;82854;-64
2022/08/02 02:47:10;;;;;;;2.67;1.17;;;16.70;99.90;16.80;100779.00;;;;5013475;27;83502;-64
2022/08/02 02:49:37;;;;;;;1.05;0.60;;;16.70;99.90;16.70;100791.00;;;;4996227;28;98529;-64
2022/08/02 02:52:05;;;;;;;1.13;1.02;;;16.60;99.90;16.70;100797.00;;;;5012261;27;113591;-64
2022/08/02 02:54:32;;;;;;;1.40;0.90;;;16.50;99.90;16.60;100797.00;;;;4997817;28;112175;-63
2022/08/02 02:56:59;;;;;;;1.00;0.90;;;16.50;99.90;16.60;100789.00;;;;5012669;27;89391;-64
2022/08/02 02:59:26;;;;;;;3.63;1.23;;;16.50;99.90;16.60;100792.00;;;;5013250;27;96873;-64
2022/08/02 03:01:53;;;;;;;0.60;0.60;;;16.50;99.90;16.60;100785.00;;;;5013371;27;111608;-64
2022/08/02 03:04:20;;;;;;;0.98;0.50;;;16.40;99.90;16.50;100794.00;;;;5013444;27;112811;-64
2022/08/02 03:06:46;;;;;;;1.20;1.08;;;16.40;99.90;16.50;100790.00;;;;4998590;27;82572;-64
2022/08/02 03:09:12;;;;;;;0.85;0.80;;;16.40;99.90;16.50;100793.00;;;;5012486;27;94818;-63
2022/08/02 03:11:40;;;;;;;1.10;1.00;;;16.40;99.90;16.40;100792.00;;;;5012603;27;86300;-64
2022/08/02 03:14:10;;;;;;;0.70;0.70;;;16.30;99.90;16.50;100800.00;;;;5013112;27;84349;-64
2022/08/02 03:16:50;;;;;;;0.90;0.73;;;16.30;99.90;16.50;100814.00;;;;4996139;28;83225;-63
2022/08/02 03:19:18;;;;;;;0.73;0.65;;;16.40;99.90;16.50;100811.00;;;;4998053;28;82603;-63
2022/08/02 03:21:45;;;;;;;2.10;1.70;;;16.30;99.90;16.40;100808.00;;;;4997860;28;83657;-63
2022/08/02 03:24:12;;;;;;;0.60;0.60;;;16.30;99.90;16.40;100800.00;;;;4998362;28;84253;-64
2022/08/02 03:26:39;;;;;;;4.32;1.58;;;16.30;99.90;16.30;100798.00;;;;4998150;28;82490;-64
2022/08/02 03:29:06;;;;;;;1.23;0.90;;;16.20;99.90;16.30;100809.00;;;;4997749;28;88873;-64
2022/08/02 03:31:32;;;;;;;0.80;0.80;;;16.20;99.90;16.30;100808.00;;;;4998243;28;85172;-64
2022/08/02 03:34:00;;;;;;;1.10;1.00;;;16.20;99.90;16.30;100805.00;;;;5012475;27;108965;-64
2022/08/02 03:36:29;;;;;;;1.02;0.85;;;16.20;99.90;16.30;100813.00;;;;5012588;27;97190;-63
2022/08/02 03:38:56;;;;;;;0.73;0.73;;;16.20;99.90;16.30;100817.00;;;;5028119;27;92451;-64
2022/08/02 03:41:23;;;;;;;1.00;0.82;;;16.20;99.90;16.30;100821.00;;;;5008455;27;111043;-63
2022/08/02 03:43:50;;;;;;;1.13;0.82;;;16.20;99.90;16.40;100825.00;;;;5012196;27;83678;-63
2022/08/02 03:46:20;;;;;;;1.20;1.00;;;16.20;99.90;16.40;100829.00;;;;5012862;27;86987;-64
2022/08/02 03:48:50;;;;;;;1.42;1.13;;;16.30;99.90;16.40;100827.00;;;;5012897;27;82659;-64
2022/08/02 03:51:18;;;;;;;1.00;1.00;;;16.30;99.90;16.40;100835.00;;;;5000117;27;83321;-64
2022/08/02 03:53:44;;;;;;;5.30;2.13;;;16.30;99.90;16.40;100831.00;;;;5001816;28;83179;-64
2022/08/02 03:56:10;;;;;;;1.48;1.38;;;16.30;99.90;16.40;100833.00;;;;5000841;28;110001;-61
2022/08/02 03:58:35;;;;;;;2.00;1.10;;;16.30;99.90;16.40;100838.00;;;;5004936;27;106915;-64
2022/08/02 04:01:01;;;;;;;1.30;1.20;;;16.30;99.90;16.50;100838.00;;;;5021490;27;84635;-64
2022/08/02 04:03:27;;;;;;;1.00;0.98;;;16.40;99.90;16.50;100847.00;;;;5020218;27;112799;-62
2022/08/02 04:05:53;;;;;;;1.90;1.40;;;16.40;99.90;16.60;100844.00;;;;5021569;27;95144;-62
2022/08/02 04:08:18;;;;;;;0.98;0.90;;;16.40;99.90;16.60;100851.00;;;;5035460;27;105880;-62
2022/08/02 04:13:35;;;;;;;1.42;1.33;;;16.50;99.90;16.80;100837.00;;;;5021400;27;82747;-62
2022/08/02 04:16:09;;;;;;;2.03;1.42;;;16.60;99.90;16.80;100850.00;;;;5036706;27;82732;-61
2022/08/02 04:18:45;;;;;;;1.38;1.27;;;16.70;99.90;16.80;100858.00;;;;5020668;27;95359;-62
2022/08/02 04:21:16;;;;;;;1.15;1.05;;;16.70;99.90;16.80;100868.00;;;;5036384;27;89216;-62
2022/08/02 04:23:44;;;;;;;2.22;1.13;;;16.70;99.90;16.80;100868.00;;;;5036134;27;84711;-64
2022/08/02 04:26:11;;;;;;;2.05;1.35;;;16.70;99.90;16.90;100864.00;;;;5019711;27;108994;-64
2022/08/02 04:28:37;;;;;;;0.80;0.80;;;16.70;99.90;16.90;100866.00;;;;5017772;27;107598;-62
2022/08/02 04:31:04;;;;;;;2.20;1.10;;;16.70;99.90;16.90;100867.00;;;;5029451;27;107975;-62
2022/08/02 04:33:30;;;;;;;1.38;0.85;;;16.70;99.90;16.90;100873.00;;;;4999304;28;112322;-63
2022/08/02 04:35:57;;;;;;;1.60;1.38;;;16.80;99.90;16.90;100876.00;;;;5015061;27;110601;-63
2022/08/02 04:38:23;;;;;;;1.05;0.93;;;16.80;99.90;16.90;100879.00;;;;5026050;27;82494;-63
2022/08/02 04:40:51;;;;;;;1.27;1.00;;;16.80;99.90;17.00;100875.00;;;;5018585;27;111947;-63
2022/08/02 04:43:17;;;;;;;1.58;1.15;;;16.80;99.90;17.00;100874.00;;;;5001052;27;82633;-63
2022/08/02 04:45:46;;;;;;;1.83;1.30;;;16.90;99.90;17.10;100879.00;;;;4999613;28;103383;-63
2022/08/02 04:48:11;;;;;;;2.22;1.10;;;16.90;99.90;17.10;100887.00;;;;5000428;28;91259;-63
2022/08/02 04:50:37;;;;;;;1.48;1.20;;;17.00;99.90;17.20;100888.00;;;;4998963;28;113203;-63
2022/08/02 04:53:03;;;;;;;8.18;1.23;;;17.00;99.90;17.20;100880.00;;;;5001151;28;83330;-63
2022/08/02 04:55:29;;;;;;;1.02;1.00;;;17.10;99.90;17.30;100879.00;;;;4999397;28;109733;-63
2022/08/02 04:57:56;;;;;;;1.98;1.33;;;17.10;99.90;17.30;100879.00;;;;4998245;28;92079;-63
2022/08/02 05:00:23;;;;;;;1.42;0.88;;;17.20;99.90;17.40;100892.00;;;;5000827;28;83086;-63
2022/08/02 05:02:50;;;;;;;2.33;1.45;;;17.30;99.90;17.60;100895.00;;;;5000080;27;83335;-63
2022/08/02 05:05:16;;;;;;;1.73;1.30;;;17.40;99.90;17.70;100898.00;;;;5000997;28;82787;-63
2022/08/02 05:07:41;;;;;;;2.17;1.27;;;17.50;99.90;17.80;100896.00;;;;4999420;28;109416;-63
2022/08/02 05:10:07;;;;;;;1.10;1.00;;;17.60;99.90;18.00;100889.00;;;;4999287;27;113044;-63
2022/08/02 05:12:33;;;;;;;1.95;1.20;;;17.80;99.90;18.10;100901.00;;;;4999424;28;103495;-63
2022/08/02 05:14:59;;;;;;;1.42;1.33;;;17.90;99.90;18.10;100902.00;;;;4999640;28;83651;-63
2022/08/02 05:17:24;;;;;;;1.17;1.08;;;17.90;99.90;18.20;100896.00;;;;4999397;28;108388;-64
2022/08/02 05:19:50;;;;;;;1.70;1.60;;;18.00;99.90;18.20;100904.00;;;;4998927;28;110879;-63
2022/08/02 05:22:16;;;;;;;1.27;1.17;;;18.10;99.90;18.30;100907.00;;;;5000120;28;82769;-63
2022/08/02 05:24:42;;;;;;;1.35;1.15;;;18.10;99.90;18.30;100907.00;;;;5000321;28;82653;-63
2022/08/02 05:27:07;;;;;;;1.85;1.30;;;18.10;99.90;18.40;100908.00;;;;4998719;27;109566;-63
2022/08/02 05:29:33;;;;;;;1.20;1.10;;;18.10;99.90;18.50;100905.00;;;;4998795;28;112476;-63
2022/08/02 05:31:59;;;;;;;1.65;1.30;;;18.30;99.90;18.60;100911.00;;;;4999337;28;112564;-63
2022/08/02 05:34:24;;;;;;;1.70;1.60;;;18.40;99.90;18.60;100907.00;;;;4999307;28;110565;-63
2022/08/02 05:36:50;;;;;;;1.55;1.35;;;18.40;99.90;18.70;100913.00;;;;4999360;27;107941;-63
2022/08/02 05:39:16;;;;;;;1.80;1.10;;;18.50;99.90;18.60;100909.00;;;;5017751;27;83989;-63
2022/08/02 05:41:42;;;;;;;3.78;1.77;;;18.50;99.90;18.60;100913.00;;;;5010454;27;83648;-63
2022/08/02 05:44:07;;;;;;;1.30;1.10;;;18.50;99.90;18.60;100915.00;;;;4999944;27;82781;-63
2022/08/02 05:46:33;;;;;;;1.10;0.80;;;18.40;99.90;18.60;100913.00;;;;4998959;28;108386;-63
2022/08/02 05:49:00;;;;;;;2.20;1.30;;;18.40;99.90;18.60;100916.00;;;;4999544;28;83669;-63
2022/08/02 05:51:39;;;;;;;1.40;1.30;;;18.50;99.90;18.80;100925.00;;;;4999694;28;84549;-63
2022/08/02 05:54:53;;;;;;;2.33;1.30;;;18.60;99.90;18.90;100920.00;;;;4998063;28;82643;-63
2022/08/02 05:57:36;;;;;;;1.38;1.27;;;18.70;99.90;19.10;100915.00;;;;4997179;28;100450;-63
2022/08/02 06:00:10;;;;;;;2.58;1.38;;;18.90;99.90;19.40;100915.00;;;;4999025;28;101522;-64
2022/08/02 06:02:53;;;;;;;4.60;1.50;;;19.10;99.90;19.60;100917.00;;;;4999309;28;83267;-64
2022/08/02 06:05:20;;;;;;;1.05;0.98;;;19.30;99.90;19.90;100921.00;;;;4999456;28;83476;-64
2022/08/02 06:07:48;;;;;;;2.20;1.88;;;19.70;99.90;20.20;100920.00;;;;4999984;28;82549;-65
2022/08/02 06:10:16;;;;;;;1.20;1.10;;;19.90;99.90;20.50;100926.00;;;;4999536;28;84197;-64
2022/08/02 06:13:08;;;;;;;1.08;1.00;;;20.20;99.90;20.80;100921.00;;;;4998615;28;104180;-64
2022/08/02 06:15:36;;;;;;;2.45;1.10;;;20.50;99.90;21.10;100926.00;;;;4999296;28;82606;-64
2022/08/02 06:18:03;;;;;;;0.80;0.80;;;20.80;99.90;21.40;100937.00;;;;4999610;28;82410;-64
2022/08/02 06:20:36;;;;;;;1.95;1.70;;;21.10;99.90;21.70;100933.00;;;;4999568;28;93578;-64
2022/08/02 06:23:06;;;;;;;1.50;1.40;;;21.40;99.90;22.00;100936.00;;;;4999448;28;83473;-65
2022/08/02 06:25:36;;;;;;;2.13;1.00;;;21.70;99.90;22.20;100940.00;;;;4999094;28;100132;-64
2022/08/02 06:28:04;;;;;;;1.15;1.05;;;21.90;99.90;22.20;100935.00;;;;5014932;27;82672;-64
2022/08/02 06:30:32;;;;;;;1.02;0.93;;;22.00;99.90;22.40;100931.00;;;;4998186;28;84192;-64
2022/08/02 06:32:58;;;;;;;2.00;1.23;;;22.20;99.90;22.60;100939.00;;;;4999333;27;89038;-64
2022/08/02 06:36:21;;;;;;;1.35;0.95;;;22.40;99.90;23.00;100936.00;;;;4999217;27;90666;-64
2022/08/02 06:39:04;;;;;;;1.50;1.15;;;22.70;99.90;23.40;100933.00;;;;5013397;27;82636;-65
2022/08/02 06:41:38;;;;;;;1.98;1.42;;;23.10;99.80;23.70;100937.00;;;;5011956;27;84003;-65
2022/08/02 06:44:04;;;;;;;1.00;0.90;;;23.30;99.00;24.00;100945.00;;;;5013415;27;83456;-65
2022/08/02 06:46:31;;;;;;;1.20;1.10;;;23.60;98.20;24.30;100929.00;;;;4999034;28;82835;-65
2022/08/02 06:48:59;;;;;;;1.33;1.23;;;23.90;97.60;24.50;100934.00;;;;4996187;28;92998;-64
2022/08/02 06:51:25;;;;;;;1.15;1.05;;;24.20;96.80;24.80;100939.00;;;;4999354;28;83185;-64
2022/08/02 06:53:51;;;;;;;1.20;1.05;;;24.40;96.00;25.00;100930.00;;;;4997635;28;110380;-64
2022/08/02 06:56:16;;;;;;;0.98;0.88;;;24.70;94.90;25.20;100930.00;;;;4997617;28;110274;-63
2022/08/02 06:58:42;;;;;;;1.90;1.25;;;24.90;94.10;25.40;100944.00;;;;4998577;28;82555;-64
2022/08/02 07:01:08;;;;;;;2.17;0.98;;;25.10;93.10;25.50;100938.00;;;;4998632;28;111184;-63
2022/08/02 07:03:36;;;;;;;1.35;1.25;;;25.20;92.40;25.60;100939.00;;;;4998652;28;83034;-63
2022/08/02 07:06:03;;;;;;;1.05;0.90;;;25.40;91.90;25.70;100931.00;;;;4998901;28;83047;-63
2022/08/02 07:08:31;;;;;;;0.90;0.80;;;25.50;91.20;25.80;100926.00;;;;4998446;28;82479;-63
2022/08/02 07:11:03;;;;;;;3.25;1.48;;;25.60;90.50;26.00;100933.00;;;;4999178;28;82610;-63
2022/08/02 07:13:29;;;;;;;1.17;1.08;;;25.80;90.20;26.30;100937.00;;;;4999115;28;83554;-63
2022/08/02 07:15:55;;;;;;;1.60;1.10;;;26.00;89.70;26.50;100929.00;;;;4997889;28;109790;-63
2022/08/02 07:18:22;;;;;;;1.20;1.10;;;26.20;88.60;26.80;100942.00;;;;4999411;28;82838;-64
2022/08/02 07:20:48;;;;;;;2.47;1.42;;;26.50;87.20;27.00;100933.00;;;;4997629;28;102016;-64
2022/08/02 07:23:13;;;;;;;1.33;1.10;;;26.70;85.40;27.10;100936.00;;;;4997085;28;114768;-63
2022/08/02 07:25:40;;;;;;;1.23;1.13;;;26.90;83.90;27.30;100936.00;;;;4998158;28;86501;-63
2022/08/02 07:28:09;;;;;;;0.93;0.93;;;27.00;82.10;27.40;100933.00;;;;4998809;28;82876;-63
2022/08/02 07:30:35;;;;;;;2.70;1.05;;;27.10;81.10;27.50;100925.00;;;;4997250;28;83549;-63
2022/08/02 07:33:01;;;;;;;1.30;0.90;;;27.20;79.90;27.60;100933.00;;;;4998184;28;88346;-63
2022/08/02 07:35:27;;;;;;;1.40;1.00;;;27.30;77.90;27.80;100927.00;;;;4998443;28;82532;-63
2022/08/02 07:37:53;;;;;;;0.82;0.82;;;27.50;77.70;27.90;100924.00;;;;5004062;27;107440;-64
2022/08/02 07:40:20;;;;;;;1.13;1.02;;;27.60;76.10;28.00;100929.00;;;;5017305;27;101909;-63
2022/08/02 07:42:48;;;;;;;2.45;1.25;;;27.70;74.90;28.20;100917.00;;;;5005192;27;103605;-63
2022/08/02 07:45:13;;;;;;;0.98;0.80;;;27.90;74.30;28.40;100911.00;;;;5004741;27;83628;-63
2022/08/02 07:47:42;;;;;;;1.63;1.10;;;28.10;73.20;28.60;100919.00;;;;5010175;27;82841;-63
2022/08/02 07:50:08;;;;;;;1.65;1.10;;;28.30;72.00;28.80;100922.00;;;;4997847;28;83904;-62
2022/08/02 07:52:35;;;;;;;2.13;1.10;;;28.50;70.80;28.90;100919.00;;;;4997991;28;83629;-64
2022/08/02 07:55:00;;;;;;;0.90;0.90;;;28.60;67.80;28.90;100914.00;;;;4997350;28;82855;-63
2022/08/02 07:57:26;;;;;;;1.00;0.88;;;28.70;67.70;29.00;100924.00;;;;4996569;28;108227;-64
2022/08/02 07:59:52;;;;;;;0.82;0.60;;;28.70;67.20;29.20;100915.00;;;;4996607;28;111749;-64
2022/08/02 08:02:17;;;;;;;2.17;0.93;;;28.90;66.50;29.30;100915.00;;;;4997933;28;83241;-64
2022/08/02 08:04:43;;;;;;;3.08;1.23;;;29.10;65.70;29.40;100916.00;;;;5012670;27;110336;-63
2022/08/02 08:07:10;;;;;;;1.02;0.90;;;29.20;64.50;29.30;100915.00;;;;5014516;27;109245;-63
2022/08/02 08:09:40;;;;;;;2.03;0.77;;;29.10;62.50;29.30;100924.00;;;;5016889;27;84028;-63
2022/08/02 08:12:07;;;;;;;1.48;1.13;;;29.10;62.70;29.50;100926.00;;;;5017658;27;84076;-64
2022/08/02 08:14:33;;;;;;;1.08;0.80;;;29.30;62.50;29.60;100919.00;;;;5017063;27;94431;-63
2022/08/02 08:16:59;;;;;;;1.77;1.02;;;29.40;61.90;29.60;100915.00;;;;5016591;27;106924;-63
2022/08/02 08:19:24;;;;;;;1.73;0.98;;;29.40;61.10;29.60;100919.00;;;;5017398;27;83810;-64
2022/08/02 08:21:50;;;;;;;2.25;1.05;;;29.40;60.70;29.50;100919.00;;;;5014333;27;111779;-63
2022/08/02 08:24:16;;;;;;;0.70;0.70;;;29.30;60.50;29.30;100917.00;;;;5017825;27;110795;-63
2022/08/02 08:26:41;;;;;;;2.08;1.08;;;29.20;60.10;29.10;100928.00;;;;5016752;27;109109;-62
2022/08/02 08:29:07;;;;;;;0.60;0.60;;;29.00;60.10;29.00;100926.00;;;;5016813;27;82746;-64
2022/08/02 08:31:33;;;;;;;0.80;0.68;;;28.90;60.00;28.90;100921.00;;;;5007375;27;94447;-63
2022/08/02 08:34:00;;;;;;;0.95;0.75;;;28.70;60.10;28.80;100927.00;;;;4997516;27;83630;-63
2022/08/02 08:36:26;;;;;;;0.82;0.70;;;28.60;60.10;28.90;100925.00;;;;4998087;27;95961;-63
2022/08/02 08:38:52;;;;;;;2.08;0.90;;;28.60;60.00;28.80;100925.00;;;;5015391;27;83764;-62
2022/08/02 08:41:18;;;;;;;2.55;0.65;;;28.60;59.30;28.90;100924.00;;;;5004988;27;83348;-63
2022/08/02 08:43:46;;;;;;;3.13;0.70;;;28.50;59.40;28.90;100924.00;;;;4998318;28;83168;-64
2022/08/02 08:46:29;;;;;;;0.43;0.43;;;28.60;59.40;29.00;100927.00;;;;5000849;28;82718;-64
2022/08/02 08:49:31;;;;;;;0.68;0.68;;;28.60;59.20;29.00;100926.00;;;;5000646;28;82831;-63
2022/08/02 08:52:04;;;;;;;0.75;0.60;;;28.70;58.90;29.00;100929.00;;;;5000388;28;83414;-63
2022/08/02 08:54:31;;;;;;;0.95;0.85;;;28.70;58.50;28.90;100924.00;;;;5000694;27;82427;-63
2022/08/02 08:56:57;;;;;;;1.08;0.45;;;28.60;58.30;28.90;100925.00;;;;5000617;28;82885;-63
2022/08/02 08:59:23;;;;;;;0.82;0.50;;;28.50;58.20;28.80;100929.00;;;;4999522;28;105072;-64
2022/08/02 09:01:50;;;;;;;3.22;0.85;;;28.50;58.10;28.80;100933.00;;;;4999213;28;113450;-63
2022/08/02 09:04:16;;;;;;;0.80;0.60;;;28.40;57.80;28.70;100928.00;;;;5015108;27;82697;-63
2022/08/02 09:06:42;;;;;;;0.50;0.50;;;28.40;57.60;28.80;100922.00;;;;5000601;28;82522;-63
2022/08/02 09:09:08;;;;;;;1.40;0.63;;;28.40;57.30;28.80;100929.00;;;;4999343;28;112624;-63
2022/08/02 09:11:34;;;;;;;1.00;0.65;;;28.40;57.30;28.70;100931.00;;;;4999825;28;83974;-63
2022/08/02 09:14:02;;;;;;;1.17;0.40;;;28.40;57.20;28.70;100933.00;;;;4999760;28;101337;-64
2022/08/02 09:16:42;;;;;;;2.58;1.15;;;28.40;57.10;28.70;100932.00;;;;5000532;28;82023;-64
2022/08/02 09:19:24;;;;;;;1.02;0.85;;;28.40;57.00;28.80;100930.00;;;;5000326;28;82851;-63
2022/08/02 09:22:01;;;;;;;2.53;0.70;;;28.40;56.70;28.80;100927.00;;;;5000227;28;84034;-64
2022/08/02 09:24:27;;;;;;;2.35;1.05;;;28.50;56.30;28.70;100922.00;;;;4999994;28;83584;-64
2022/08/02 09:26:52;;;;;;;0.60;0.57;;;28.50;56.00;28.60;100923.00;;;;4999462;28;104301;-64
2022/08/02 09:29:23;;;;;;;1.10;0.70;;;28.30;55.30;28.40;100920.00;;;;4998921;28;112709;-63
2022/08/02 09:31:49;;;;;;;5.03;1.10;;;28.10;55.20;28.30;100914.00;;;;4999958;28;83012;-64
2022/08/02 09:34:15;;;;;;;0.75;0.50;;;28.00;56.00;28.50;100913.00;;;;4998526;28;110467;-63
2022/08/02 09:36:44;;;;;;;3.20;1.05;;;28.10;55.80;28.60;100908.00;;;;4996611;28;108784;-63
2022/08/02 09:39:14;;;;;;;0.50;0.47;;;28.20;55.90;28.80;100911.00;;;;5016574;27;83672;-64
2022/08/02 09:41:43;;;;;;;0.75;0.60;;;28.40;55.80;28.90;100913.00;;;;5001199;27;82378;-64
2022/08/02 09:44:14;;;;;;;0.60;0.60;;;28.40;55.50;29.10;100911.00;;;;5000020;27;82403;-64
2022/08/02 09:46:42;;;;;;;0.40;0.38;;;28.60;55.40;29.30;100901.00;;;;4999372;28;82713;-64
2022/08/02 09:49:18;;;;;;;0.60;0.60;;;28.80;55.00;29.40;100907.00;;;;4999246;28;84687;-64
2022/08/02 09:51:52;;;;;;;0.65;0.65;;;29.00;54.50;29.40;100902.00;;;;4999600;28;83680;-64
2022/08/02 09:54:25;;;;;;;0.80;0.73;;;29.00;54.20;29.40;100903.00;;;;5014812;27;82906;-64
2022/08/02 09:56:55;;;;;;;1.25;0.70;;;29.00;54.00;29.60;100894.00;;;;4999122;28;82579;-63
2022/08/02 09:59:23;;;;;;;2.05;0.57;;;29.10;54.40;29.80;100890.00;;;;4999144;28;83445;-63
2022/08/02 10:01:50;;;;;;;0.93;0.68;;;29.30;53.60;29.90;100883.00;;;;4999576;28;83070;-64
2022/08/02 10:04:25;;;;;;;0.73;0.68;;;29.40;53.60;30.00;100892.00;;;;4999866;27;91502;-64
2022/08/02 10:06:52;;;;;;;1.10;0.82;;;29.50;52.30;30.10;100877.00;;;;5008948;27;81914;-64
2022/08/02 10:09:20;;;;;;;0.82;0.70;;;29.60;52.40;30.20;100875.00;;;;5019107;27;82936;-64
2022/08/02 10:11:47;;;;;;;0.90;0.65;;;29.70;52.20;30.50;100880.00;;;;5019263;27;83355;-64
2022/08/02 10:14:12;;;;;;;1.55;0.80;;;29.90;52.00;30.80;100877.00;;;;5019129;27;83589;-64
2022/08/02 10:16:42;;;;;;;1.85;0.93;;;30.20;51.80;31.30;100868.00;;;;5018236;27;106234;-64
2022/08/02 10:19:09;;;;;;;1.23;0.68;;;30.60;51.40;31.70;100874.00;;;;5020677;27;83178;-64
2022/08/02 10:21:47;;;;;;;1.45;0.85;;;31.00;50.50;32.00;100879.00;;;;5018179;27;111583;-65
2022/08/02 10:24:17;;;;;;;1.42;0.90;;;31.30;50.00;32.40;100872.00;;;;5001121;27;83061;-64
2022/08/02 10:26:45;;;;;;;1.65;0.70;;;31.70;49.20;32.60;100881.00;;;;4999007;28;82416;-65
2022/08/02 10:29:17;;;;;;;1.23;0.68;;;31.90;48.30;32.90;100872.00;;;;4999210;28;83156;-65
2022/08/02 10:31:54;;;;;;;2.38;1.02;;;32.20;48.10;33.20;100870.00;;;;4998875;28;83907;-65
2022/08/02 10:34:29;;;;;;;0.43;0.43;;;32.40;48.30;33.50;100871.00;;;;4998767;27;99922;-63
2022/08/02 10:36:56;;;;;;;1.90;0.93;;;32.70;47.20;33.50;100868.00;;;;4998493;28;97053;-63
2022/08/02 10:39:22;;;;;;;2.60;0.80;;;32.80;46.70;33.50;100875.00;;;;5011308;27;112898;-64
2022/08/02 10:41:50;;;;;;;1.05;0.98;;;32.90;47.00;33.60;100868.00;;;;4996652;28;112343;-65
2022/08/02 10:44:36;;;;;;;1.38;0.73;;;32.90;45.50;33.50;100863.00;;;;4999084;28;82731;-64
2022/08/02 10:47:29;;;;;;;1.17;0.65;;;32.90;45.50;33.50;100862.00;;;;4998794;28;82878;-64
2022/08/02 10:49:56;;;;;;;0.80;0.80;;;32.90;44.90;33.40;100865.00;;;;4995299;27;112223;-64
2022/08/02 10:52:24;;;;;;;1.13;0.95;;;32.90;44.30;33.30;100864.00;;;;4998278;28;82668;-63
2022/08/02 10:54:56;;;;;;;1.10;0.88;;;32.70;44.80;33.50;100866.00;;;;4996807;28;85443;-64
2022/08/02 10:57:30;;;;;;;0.75;0.70;;;32.80;44.40;33.80;100856.00;;;;4999061;28;82010;-65